AZU4338 SBKP-SBCY
Flight info
| Callsign | AZU4338 |
|---|---|
| Flight time | 1h 48m |
| Altitude | 34000 |
| Route | GERTU UL201 ROBID DCT RODAD UM775 SINIP |
| Aircraft | A20N/M-SDE2E3FGHIRWXY/LB1 |
Departure
| Time | 2026-05-07 18:05 |
|---|---|
| Airport | Viracopos International Airport (SBKP) |
Arrival
| Time | 2026-05-07 19:54 |
|---|---|
| Airport | Várzea Grande–Marechal Rondon International Airport (SBCY) |
| Time | Latitude | Longitude | Altitude | Speed | Heading |
|---|---|---|---|---|---|
| 2026-05-07 16:48 | -23.00428 | -47.14824 | 2157 ft | 0 kts | 218° |
| 2026-05-07 17:54 | -23.00420 | -47.14817 | 2154 ft | 2 kts | 218° |
| 2026-05-07 17:55 | -23.00409 | -47.14808 | 2157 ft | 2 kts | 227° |
| 2026-05-07 17:55 | -23.00401 | -47.14796 | 2154 ft | 2 kts | 251° |
| 2026-05-07 17:55 | -23.00398 | -47.14781 | 2153 ft | 2 kts | 300° |
| 2026-05-07 17:55 | -23.00406 | -47.14769 | 2155 ft | 2 kts | 311° |
| 2026-05-07 17:56 | -23.00414 | -47.14758 | 2151 ft | 2 kts | 303° |
| 2026-05-07 17:56 | -23.00422 | -47.14745 | 2151 ft | 2 kts | 303° |
| 2026-05-07 17:56 | -23.00424 | -47.14742 | 2153 ft | 0 kts | 303° |
| 2026-05-07 17:57 | -23.00422 | -47.14745 | 2150 ft | 1 kts | 304° |
| 2026-05-07 17:57 | -23.00421 | -47.14745 | 2150 ft | 0 kts | 304° |
| 2026-05-07 17:57 | -23.00411 | -47.14748 | 2151 ft | 4 kts | 358° |
| 2026-05-07 17:58 | -23.00369 | -47.14716 | 2154 ft | 10 kts | 37° |
| 2026-05-07 17:58 | -23.00310 | -47.14667 | 2153 ft | 12 kts | 37° |
| 2026-05-07 17:58 | -23.00260 | -47.14604 | 2157 ft | 11 kts | 93° |
| 2026-05-07 17:58 | -23.00306 | -47.14534 | 2154 ft | 12 kts | 129° |
| 2026-05-07 17:59 | -23.00360 | -47.14457 | 2152 ft | 15 kts | 127° |
| 2026-05-07 17:59 | -23.00433 | -47.14355 | 2156 ft | 18 kts | 128° |
| 2026-05-07 17:59 | -23.00507 | -47.14251 | 2155 ft | 17 kts | 128° |
| 2026-05-07 17:59 | -23.00586 | -47.14146 | 2153 ft | 18 kts | 130° |
| 2026-05-07 18:00 | -23.00663 | -47.14032 | 2154 ft | 19 kts | 120° |
| 2026-05-07 18:00 | -23.00699 | -47.13944 | 2152 ft | 20 kts | 107° |
| 2026-05-07 18:00 | -23.00745 | -47.13752 | 2153 ft | 19 kts | 126° |
| 2026-05-07 18:00 | -23.00834 | -47.13639 | 2155 ft | 20 kts | 127° |
| 2026-05-07 18:01 | -23.00889 | -47.13560 | 2150 ft | 20 kts | 127° |
| 2026-05-07 18:01 | -23.00970 | -47.13448 | 2156 ft | 18 kts | 128° |
| 2026-05-07 18:01 | -23.01056 | -47.13332 | 2154 ft | 22 kts | 124° |
| 2026-05-07 18:01 | -23.01147 | -47.13199 | 2154 ft | 21 kts | 128° |
| 2026-05-07 18:02 | -23.01315 | -47.12962 | 2153 ft | 18 kts | 127° |
| 2026-05-07 18:02 | -23.01387 | -47.12861 | 2152 ft | 16 kts | 128° |
| 2026-05-07 18:02 | -23.01451 | -47.12771 | 2151 ft | 14 kts | 128° |
| 2026-05-07 18:03 | -23.01526 | -47.12669 | 2152 ft | 21 kts | 127° |
| 2026-05-07 18:03 | -23.01615 | -47.12542 | 2153 ft | 21 kts | 128° |
| 2026-05-07 18:03 | -23.01708 | -47.12414 | 2153 ft | 21 kts | 128° |
| 2026-05-07 18:03 | -23.01751 | -47.12330 | 2156 ft | 10 kts | 86° |
| 2026-05-07 18:04 | -23.01710 | -47.12271 | 2154 ft | 10 kts | 37° |
| 2026-05-07 18:04 | -23.01649 | -47.12226 | 2155 ft | 11 kts | 24° |
| 2026-05-07 18:04 | -23.01587 | -47.12263 | 2154 ft | 10 kts | 307° |
| 2026-05-07 18:04 | -23.01573 | -47.12283 | 2152 ft | 4 kts | 306° |
| 2026-05-07 18:05 | -23.01430 | -47.12485 | 2150 ft | 70 kts | 308° |
| 2026-05-07 18:05 | -23.01005 | -47.13080 | 2154 ft | 127 kts | 308° |
| 2026-05-07 18:05 | -23.00372 | -47.13967 | 2193 ft | 166 kts | 311° |
| 2026-05-07 18:05 | -22.99669 | -47.14966 | 2827 ft | 164 kts | 310° |
| 2026-05-07 18:06 | -22.98861 | -47.15895 | 3181 ft | 175 kts | 328° |
| 2026-05-07 18:06 | -22.97801 | -47.16618 | 3545 ft | 185 kts | 329° |
| 2026-05-07 18:06 | -22.96666 | -47.17418 | 3886 ft | 205 kts | 329° |
| 2026-05-07 18:06 | -22.95399 | -47.18308 | 4121 ft | 228 kts | 329° |
| 2026-05-07 18:07 | -22.94005 | -47.19293 | 4442 ft | 248 kts | 329° |
| 2026-05-07 18:07 | -22.92539 | -47.20334 | 5071 ft | 254 kts | 328° |
| 2026-05-07 18:07 | -22.91022 | -47.21345 | 5713 ft | 258 kts | 336° |
| 2026-05-07 18:07 | -22.89279 | -47.21825 | 6376 ft | 261 kts | 354° |
| 2026-05-07 18:08 | -22.87466 | -47.22022 | 7097 ft | 263 kts | 354° |
| 2026-05-07 18:08 | -22.85636 | -47.22217 | 7769 ft | 266 kts | 354° |
| 2026-05-07 18:08 | -22.83785 | -47.22414 | 8438 ft | 269 kts | 354° |
| 2026-05-07 18:08 | -22.81914 | -47.22614 | 9127 ft | 272 kts | 354° |
| 2026-05-07 18:09 | -22.80021 | -47.22818 | 9806 ft | 275 kts | 354° |
| 2026-05-07 18:09 | -22.78087 | -47.23028 | 10192 ft | 288 kts | 354° |
| 2026-05-07 18:09 | -22.76015 | -47.23253 | 10323 ft | 309 kts | 354° |
| 2026-05-07 18:09 | -22.73835 | -47.23491 | 10733 ft | 319 kts | 354° |
| 2026-05-07 18:10 | -22.71616 | -47.23735 | 11318 ft | 322 kts | 355° |
| 2026-05-07 18:10 | -22.69373 | -47.23981 | 11920 ft | 326 kts | 355° |
| 2026-05-07 18:10 | -22.67129 | -47.24227 | 12501 ft | 331 kts | 355° |
| 2026-05-07 18:10 | -22.64818 | -47.24480 | 13043 ft | 336 kts | 355° |
| 2026-05-07 18:11 | -22.62475 | -47.24734 | 13650 ft | 341 kts | 356° |
| 2026-05-07 18:11 | -22.60105 | -47.24992 | 14213 ft | 344 kts | 356° |
| 2026-05-07 18:11 | -22.57710 | -47.25255 | 14782 ft | 347 kts | 355° |
| 2026-05-07 18:11 | -22.55291 | -47.25521 | 15330 ft | 352 kts | 355° |
| 2026-05-07 18:12 | -22.52843 | -47.25788 | 15964 ft | 355 kts | 355° |
| 2026-05-07 18:12 | -22.50378 | -47.26053 | 16609 ft | 357 kts | 355° |
| 2026-05-07 18:12 | -22.47893 | -47.26318 | 17244 ft | 362 kts | 355° |
| 2026-05-07 18:12 | -22.45372 | -47.26591 | 17876 ft | 367 kts | 354° |
| 2026-05-07 18:13 | -22.42818 | -47.26868 | 18486 ft | 371 kts | 354° |
| 2026-05-07 18:13 | -22.40244 | -47.27151 | 19099 ft | 374 kts | 353° |
| 2026-05-07 18:13 | -22.37658 | -47.27436 | 19696 ft | 378 kts | 353° |
| 2026-05-07 18:13 | -22.35019 | -47.27726 | 20264 ft | 383 kts | 353° |
| 2026-05-07 18:14 | -22.32353 | -47.28039 | 20792 ft | 388 kts | 349° |
| 2026-05-07 18:14 | -22.29733 | -47.28761 | 21333 ft | 390 kts | 337° |
| 2026-05-07 18:14 | -22.27297 | -47.30046 | 21920 ft | 390 kts | 325° |
| 2026-05-07 18:14 | -22.25145 | -47.31835 | 22477 ft | 392 kts | 315° |
| 2026-05-07 18:15 | -22.23160 | -47.33871 | 23041 ft | 396 kts | 314° |
| 2026-05-07 18:15 | -22.21152 | -47.35924 | 23617 ft | 399 kts | 314° |
| 2026-05-07 18:15 | -22.19122 | -47.37993 | 24088 ft | 403 kts | 314° |
| 2026-05-07 18:15 | -22.17078 | -47.40068 | 24581 ft | 406 kts | 314° |
| 2026-05-07 18:16 | -22.15015 | -47.42162 | 25055 ft | 409 kts | 314° |
| 2026-05-07 18:16 | -22.12935 | -47.44273 | 25525 ft | 412 kts | 314° |
| 2026-05-07 18:16 | -22.10839 | -47.46400 | 25994 ft | 415 kts | 314° |
| 2026-05-07 18:16 | -22.08733 | -47.48540 | 26465 ft | 418 kts | 314° |
| 2026-05-07 18:17 | -22.06608 | -47.50702 | 26923 ft | 421 kts | 314° |
| 2026-05-07 18:17 | -22.04466 | -47.52879 | 27373 ft | 425 kts | 314° |
| 2026-05-07 18:17 | -22.02306 | -47.55069 | 27832 ft | 428 kts | 314° |
| 2026-05-07 18:17 | -22.00129 | -47.57274 | 28279 ft | 431 kts | 314° |
| 2026-05-07 18:18 | -21.97941 | -47.59490 | 28725 ft | 434 kts | 314° |
| 2026-05-07 18:18 | -21.95730 | -47.61729 | 29159 ft | 438 kts | 314° |
| 2026-05-07 18:18 | -21.93503 | -47.63984 | 29597 ft | 441 kts | 314° |
| 2026-05-07 18:18 | -21.91289 | -47.66226 | 30018 ft | 444 kts | 314° |
| 2026-05-07 18:19 | -21.89003 | -47.68538 | 30386 ft | 447 kts | 314° |
| 2026-05-07 18:19 | -21.86757 | -47.70808 | 30738 ft | 450 kts | 313° |
| 2026-05-07 18:19 | -21.84471 | -47.73124 | 31097 ft | 452 kts | 313° |
| 2026-05-07 18:19 | -21.82170 | -47.75451 | 31458 ft | 455 kts | 313° |
| 2026-05-07 18:20 | -21.79860 | -47.77786 | 31893 ft | 455 kts | 313° |
| 2026-05-07 18:20 | -21.77557 | -47.80109 | 32398 ft | 454 kts | 313° |
| 2026-05-07 18:20 | -21.75254 | -47.82429 | 32920 ft | 452 kts | 313° |
| 2026-05-07 18:20 | -21.72960 | -47.84738 | 33456 ft | 451 kts | 312° |
| 2026-05-07 18:21 | -21.70673 | -47.87040 | 33960 ft | 450 kts | 312° |
| 2026-05-07 18:21 | -21.68396 | -47.89331 | 34400 ft | 448 kts | 312° |
| 2026-05-07 18:21 | -21.66122 | -47.91620 | 34850 ft | 447 kts | 311° |
| 2026-05-07 18:21 | -21.63855 | -47.93899 | 35282 ft | 445 kts | 311° |
| 2026-05-07 18:22 | -21.61597 | -47.96167 | 35726 ft | 443 kts | 311° |
| 2026-05-07 18:22 | -21.60109 | -47.97660 | 35997 ft | 442 kts | 311° |
| 2026-05-07 18:22 | -21.57111 | -48.00670 | 36540 ft | 440 kts | 310° |
| 2026-05-07 18:22 | -21.54878 | -48.02913 | 36935 ft | 438 kts | 310° |
| 2026-05-07 18:23 | -21.52656 | -48.05141 | 37372 ft | 436 kts | 310° |
| 2026-05-07 18:23 | -21.50447 | -48.07358 | 37769 ft | 434 kts | 310° |
| 2026-05-07 18:23 | -21.48251 | -48.09569 | 37927 ft | 433 kts | 309° |
| 2026-05-07 18:24 | -21.43871 | -48.13972 | 37949 ft | 430 kts | 309° |
| 2026-05-07 18:24 | -21.39493 | -48.18359 | 37941 ft | 431 kts | 310° |
| 2026-05-07 18:25 | -21.35108 | -48.22745 | 37944 ft | 431 kts | 310° |
| 2026-05-07 18:25 | -21.30727 | -48.27122 | 37935 ft | 429 kts | 310° |
| 2026-05-07 18:26 | -21.26367 | -48.31482 | 37949 ft | 429 kts | 309° |
| 2026-05-07 18:26 | -21.22007 | -48.35846 | 37931 ft | 429 kts | 310° |
| 2026-05-07 18:27 | -21.17642 | -48.40200 | 37936 ft | 429 kts | 310° |
| 2026-05-07 18:27 | -21.13264 | -48.44560 | 37946 ft | 430 kts | 310° |
| 2026-05-07 18:28 | -21.08887 | -48.48912 | 37952 ft | 429 kts | 310° |
| 2026-05-07 18:28 | -21.04508 | -48.53265 | 37954 ft | 429 kts | 310° |
| 2026-05-07 18:29 | -21.00133 | -48.57619 | 37935 ft | 429 kts | 310° |
| 2026-05-07 18:29 | -20.95788 | -48.61939 | 37938 ft | 430 kts | 310° |
| 2026-05-07 18:30 | -20.91400 | -48.66297 | 37942 ft | 430 kts | 310° |
| 2026-05-07 18:30 | -20.87014 | -48.70651 | 37942 ft | 430 kts | 310° |
| 2026-05-07 18:31 | -20.82620 | -48.75004 | 37938 ft | 430 kts | 310° |
| 2026-05-07 18:31 | -20.78228 | -48.79350 | 37938 ft | 431 kts | 310° |
| 2026-05-07 18:32 | -20.73909 | -48.83773 | 37929 ft | 425 kts | 303° |
| 2026-05-07 18:32 | -20.70296 | -48.88724 | 37928 ft | 423 kts | 301° |
| 2026-05-07 18:33 | -20.66694 | -48.93693 | 37927 ft | 423 kts | 301° |
| 2026-05-07 18:33 | -20.63091 | -48.98654 | 37915 ft | 423 kts | 301° |
| 2026-05-07 18:34 | -20.59477 | -49.03623 | 37920 ft | 424 kts | 301° |
| 2026-05-07 18:34 | -20.55861 | -49.08588 | 37924 ft | 424 kts | 301° |
| 2026-05-07 18:35 | -20.52249 | -49.13568 | 37924 ft | 424 kts | 301° |
| 2026-05-07 18:35 | -20.48630 | -49.18543 | 37926 ft | 424 kts | 301° |
| 2026-05-07 18:36 | -20.45007 | -49.23509 | 37916 ft | 425 kts | 301° |
| 2026-05-07 18:36 | -20.41375 | -49.28478 | 37921 ft | 425 kts | 301° |
| 2026-05-07 18:37 | -20.37754 | -49.33444 | 37931 ft | 424 kts | 301° |
| 2026-05-07 18:37 | -20.34125 | -49.38407 | 37932 ft | 424 kts | 301° |
| 2026-05-07 18:38 | -20.30496 | -49.43357 | 37927 ft | 424 kts | 301° |
| 2026-05-07 18:38 | -20.26861 | -49.48303 | 37914 ft | 424 kts | 301° |
| 2026-05-07 18:39 | -20.23234 | -49.53246 | 37919 ft | 424 kts | 301° |
| 2026-05-07 18:39 | -20.19633 | -49.58156 | 37930 ft | 423 kts | 301° |
| 2026-05-07 18:40 | -20.15991 | -49.63123 | 37928 ft | 422 kts | 301° |
| 2026-05-07 18:40 | -20.12408 | -49.68010 | 37927 ft | 422 kts | 301° |
| 2026-05-07 18:41 | -20.08791 | -49.72923 | 37913 ft | 421 kts | 301° |
| 2026-05-07 18:41 | -20.05181 | -49.77826 | 37916 ft | 421 kts | 301° |
| 2026-05-07 18:42 | -20.01570 | -49.82732 | 37917 ft | 421 kts | 301° |
| 2026-05-07 18:42 | -19.97964 | -49.87626 | 37914 ft | 421 kts | 301° |
| 2026-05-07 18:43 | -19.94350 | -49.92518 | 37909 ft | 420 kts | 301° |
| 2026-05-07 18:43 | -19.90743 | -49.97399 | 37896 ft | 420 kts | 302° |
| 2026-05-07 18:44 | -19.87133 | -50.02284 | 37898 ft | 420 kts | 302° |
| 2026-05-07 18:44 | -19.83526 | -50.07160 | 37899 ft | 420 kts | 302° |
| 2026-05-07 18:45 | -19.79917 | -50.12039 | 37900 ft | 420 kts | 302° |
| 2026-05-07 18:45 | -19.76310 | -50.16911 | 37897 ft | 420 kts | 302° |
| 2026-05-07 18:46 | -19.72690 | -50.21782 | 37890 ft | 420 kts | 302° |
| 2026-05-07 18:46 | -19.69092 | -50.26620 | 37886 ft | 420 kts | 302° |
| 2026-05-07 18:47 | -19.65471 | -50.31487 | 37889 ft | 421 kts | 302° |
| 2026-05-07 18:47 | -19.61849 | -50.36364 | 37892 ft | 421 kts | 302° |
| 2026-05-07 18:48 | -19.58843 | -50.40414 | 37891 ft | 421 kts | 302° |
| 2026-05-07 18:48 | -19.55217 | -50.45286 | 37895 ft | 421 kts | 302° |
| 2026-05-07 18:49 | -19.51589 | -50.50146 | 37880 ft | 421 kts | 302° |
| 2026-05-07 18:49 | -19.47957 | -50.55014 | 37883 ft | 421 kts | 302° |
| 2026-05-07 18:50 | -19.44327 | -50.59878 | 37890 ft | 421 kts | 302° |
| 2026-05-07 18:50 | -19.40694 | -50.64749 | 37889 ft | 421 kts | 302° |
| 2026-05-07 18:51 | -19.37061 | -50.69610 | 37893 ft | 421 kts | 302° |
| 2026-05-07 18:51 | -19.33428 | -50.74469 | 37890 ft | 420 kts | 302° |
| 2026-05-07 18:52 | -19.29799 | -50.79317 | 37888 ft | 420 kts | 302° |
| 2026-05-07 18:52 | -19.26164 | -50.84169 | 37889 ft | 420 kts | 302° |
| 2026-05-07 18:53 | -19.22524 | -50.89010 | 37888 ft | 421 kts | 302° |
| 2026-05-07 18:53 | -19.18883 | -50.93863 | 37888 ft | 420 kts | 302° |
| 2026-05-07 18:54 | -19.15256 | -50.98697 | 37895 ft | 419 kts | 302° |
| 2026-05-07 18:54 | -19.11645 | -51.03495 | 37890 ft | 419 kts | 303° |
| 2026-05-07 18:55 | -19.07988 | -51.08353 | 37886 ft | 420 kts | 303° |
| 2026-05-07 18:55 | -19.04381 | -51.13157 | 37891 ft | 420 kts | 303° |
| 2026-05-07 18:56 | -19.00748 | -51.17984 | 37894 ft | 420 kts | 303° |
| 2026-05-07 18:56 | -18.97102 | -51.22810 | 37892 ft | 420 kts | 303° |
| 2026-05-07 18:57 | -18.93458 | -51.27629 | 37886 ft | 420 kts | 303° |
| 2026-05-07 18:57 | -18.89816 | -51.32458 | 37886 ft | 420 kts | 303° |
| 2026-05-07 18:58 | -18.86170 | -51.37278 | 37895 ft | 420 kts | 303° |
| 2026-05-07 18:58 | -18.82525 | -51.42102 | 37895 ft | 420 kts | 303° |
| 2026-05-07 18:59 | -18.78884 | -51.46915 | 37896 ft | 420 kts | 303° |
| 2026-05-07 18:59 | -18.75234 | -51.51724 | 37903 ft | 419 kts | 303° |
| 2026-05-07 19:00 | -18.71587 | -51.56530 | 37891 ft | 419 kts | 303° |
| 2026-05-07 19:00 | -18.67949 | -51.61331 | 37900 ft | 419 kts | 303° |
| 2026-05-07 19:01 | -18.64300 | -51.66129 | 37888 ft | 419 kts | 303° |
| 2026-05-07 19:01 | -18.60656 | -51.70917 | 37904 ft | 419 kts | 303° |
| 2026-05-07 19:02 | -18.57009 | -51.75709 | 37894 ft | 419 kts | 303° |
| 2026-05-07 19:02 | -18.53374 | -51.80500 | 37885 ft | 419 kts | 303° |
| 2026-05-07 19:03 | -18.49732 | -51.85292 | 37894 ft | 419 kts | 303° |
| 2026-05-07 19:03 | -18.46080 | -51.90078 | 37898 ft | 419 kts | 303° |
| 2026-05-07 19:04 | -18.42456 | -51.94826 | 37896 ft | 419 kts | 303° |
| 2026-05-07 19:04 | -18.38802 | -51.99610 | 37898 ft | 419 kts | 303° |
| 2026-05-07 19:05 | -18.35149 | -52.04388 | 37904 ft | 419 kts | 303° |
| 2026-05-07 19:05 | -18.31493 | -52.09166 | 37900 ft | 419 kts | 303° |
| 2026-05-07 19:06 | -18.27840 | -52.13941 | 37903 ft | 419 kts | 303° |
| 2026-05-07 19:06 | -18.22355 | -52.21107 | 37907 ft | 420 kts | 303° |
| 2026-05-07 19:07 | -18.18697 | -52.25893 | 37910 ft | 420 kts | 303° |
| 2026-05-07 19:07 | -18.15030 | -52.30674 | 37913 ft | 420 kts | 304° |
| 2026-05-07 19:08 | -18.11363 | -52.35446 | 37909 ft | 420 kts | 304° |
| 2026-05-07 19:08 | -18.07691 | -52.40222 | 37911 ft | 420 kts | 304° |
| 2026-05-07 19:09 | -18.04025 | -52.44998 | 37907 ft | 420 kts | 304° |
| 2026-05-07 19:09 | -18.00347 | -52.49772 | 37914 ft | 420 kts | 304° |
| 2026-05-07 19:10 | -17.96670 | -52.54539 | 37915 ft | 420 kts | 304° |
| 2026-05-07 19:10 | -17.92996 | -52.59307 | 37916 ft | 419 kts | 304° |
| 2026-05-07 19:11 | -17.89328 | -52.64064 | 37922 ft | 419 kts | 304° |
| 2026-05-07 19:11 | -17.85654 | -52.68823 | 37922 ft | 419 kts | 304° |
| 2026-05-07 19:12 | -17.82001 | -52.73546 | 37929 ft | 419 kts | 304° |
| 2026-05-07 19:12 | -17.78309 | -52.78324 | 37935 ft | 419 kts | 304° |
| 2026-05-07 19:13 | -17.74664 | -52.83036 | 37931 ft | 418 kts | 304° |
| 2026-05-07 19:13 | -17.70980 | -52.87800 | 37930 ft | 418 kts | 304° |
| 2026-05-07 19:14 | -17.67320 | -52.92533 | 37918 ft | 418 kts | 304° |
| 2026-05-07 19:14 | -17.63655 | -52.97259 | 37914 ft | 418 kts | 304° |
| 2026-05-07 19:15 | -17.60008 | -53.01964 | 37912 ft | 418 kts | 304° |
| 2026-05-07 19:15 | -17.56317 | -53.06735 | 37914 ft | 418 kts | 304° |
| 2026-05-07 19:16 | -17.52650 | -53.11460 | 37922 ft | 418 kts | 304° |
| 2026-05-07 19:16 | -17.48999 | -53.16151 | 37921 ft | 418 kts | 304° |
| 2026-05-07 19:17 | -17.45302 | -53.20897 | 37907 ft | 418 kts | 304° |
| 2026-05-07 19:17 | -17.41644 | -53.25584 | 37900 ft | 418 kts | 304° |
| 2026-05-07 19:18 | -17.37969 | -53.30302 | 37907 ft | 418 kts | 304° |
| 2026-05-07 19:18 | -17.34289 | -53.35023 | 37908 ft | 418 kts | 304° |
| 2026-05-07 19:19 | -17.30612 | -53.39734 | 37905 ft | 418 kts | 304° |
| 2026-05-07 19:19 | -17.26939 | -53.44453 | 37910 ft | 418 kts | 304° |
| 2026-05-07 19:20 | -17.23263 | -53.49162 | 37893 ft | 418 kts | 305° |
| 2026-05-07 19:20 | -17.19576 | -53.53877 | 37891 ft | 419 kts | 305° |
| 2026-05-07 19:21 | -17.15885 | -53.58599 | 37888 ft | 419 kts | 305° |
| 2026-05-07 19:21 | -17.12192 | -53.63315 | 37893 ft | 419 kts | 305° |
| 2026-05-07 19:22 | -17.08762 | -53.68207 | 37893 ft | 414 kts | 294° |
| 2026-05-07 19:22 | -17.06020 | -53.73489 | 37896 ft | 414 kts | 295° |
| 2026-05-07 19:23 | -17.03258 | -53.78770 | 37895 ft | 414 kts | 295° |
| 2026-05-07 19:23 | -17.00489 | -53.84044 | 37890 ft | 414 kts | 295° |
| 2026-05-07 19:24 | -16.97715 | -53.89330 | 37893 ft | 415 kts | 295° |
| 2026-05-07 19:24 | -16.94955 | -53.94617 | 37886 ft | 415 kts | 295° |
| 2026-05-07 19:25 | -16.92183 | -53.99910 | 37882 ft | 415 kts | 295° |
| 2026-05-07 19:25 | -16.89400 | -54.05190 | 37879 ft | 415 kts | 295° |
| 2026-05-07 19:26 | -16.86621 | -54.10477 | 37888 ft | 415 kts | 295° |
| 2026-05-07 19:26 | -16.83862 | -54.15730 | 37888 ft | 415 kts | 295° |
| 2026-05-07 19:27 | -16.81084 | -54.21013 | 37878 ft | 416 kts | 295° |
| 2026-05-07 19:27 | -16.78303 | -54.26307 | 37872 ft | 416 kts | 295° |
| 2026-05-07 19:28 | -16.75514 | -54.31593 | 37869 ft | 416 kts | 295° |
| 2026-05-07 19:28 | -16.72714 | -54.36883 | 37818 ft | 417 kts | 295° |
| 2026-05-07 19:29 | -16.71305 | -54.39556 | 36794 ft | 426 kts | 295° |
| 2026-05-07 19:29 | -16.69864 | -54.42306 | 35789 ft | 436 kts | 295° |
| 2026-05-07 19:29 | -16.68420 | -54.45047 | 35485 ft | 427 kts | 295° |
| 2026-05-07 19:29 | -16.66993 | -54.47748 | 34962 ft | 424 kts | 295° |
| 2026-05-07 19:30 | -16.65572 | -54.50432 | 34430 ft | 421 kts | 296° |
| 2026-05-07 19:30 | -16.64160 | -54.53096 | 33923 ft | 420 kts | 296° |
| 2026-05-07 19:30 | -16.62752 | -54.55757 | 33349 ft | 418 kts | 296° |
| 2026-05-07 19:30 | -16.61354 | -54.58396 | 32853 ft | 414 kts | 296° |
| 2026-05-07 19:31 | -16.59966 | -54.61015 | 32328 ft | 411 kts | 296° |
| 2026-05-07 19:31 | -16.58587 | -54.63613 | 31790 ft | 409 kts | 296° |
| 2026-05-07 19:31 | -16.57219 | -54.66208 | 31269 ft | 407 kts | 296° |
| 2026-05-07 19:31 | -16.55882 | -54.68801 | 30757 ft | 405 kts | 295° |
| 2026-05-07 19:32 | -16.54566 | -54.71388 | 30245 ft | 403 kts | 295° |
| 2026-05-07 19:32 | -16.53264 | -54.73966 | 29715 ft | 401 kts | 295° |
| 2026-05-07 19:32 | -16.51973 | -54.76521 | 29214 ft | 397 kts | 295° |
| 2026-05-07 19:32 | -16.50685 | -54.79051 | 28729 ft | 393 kts | 296° |
| 2026-05-07 19:33 | -16.49407 | -54.81553 | 28263 ft | 389 kts | 296° |
| 2026-05-07 19:33 | -16.48218 | -54.83875 | 27825 ft | 386 kts | 296° |
| 2026-05-07 19:33 | -16.46960 | -54.86328 | 27376 ft | 382 kts | 296° |
| 2026-05-07 19:33 | -16.45725 | -54.88740 | 26922 ft | 379 kts | 296° |
| 2026-05-07 19:34 | -16.44502 | -54.91120 | 26468 ft | 376 kts | 296° |
| 2026-05-07 19:34 | -16.43270 | -54.93515 | 26013 ft | 374 kts | 296° |
| 2026-05-07 19:34 | -16.42045 | -54.95894 | 25555 ft | 372 kts | 297° |
| 2026-05-07 19:34 | -16.40829 | -54.98264 | 25080 ft | 370 kts | 297° |
| 2026-05-07 19:35 | -16.39616 | -55.00628 | 24608 ft | 370 kts | 297° |
| 2026-05-07 19:35 | -16.38404 | -55.02986 | 24121 ft | 369 kts | 298° |
| 2026-05-07 19:35 | -16.37189 | -55.05341 | 23627 ft | 369 kts | 299° |
| 2026-05-07 19:35 | -16.35971 | -55.07694 | 23083 ft | 369 kts | 299° |
| 2026-05-07 19:36 | -16.34757 | -55.10041 | 22574 ft | 367 kts | 299° |
| 2026-05-07 19:36 | -16.33557 | -55.12372 | 22104 ft | 365 kts | 299° |
| 2026-05-07 19:36 | -16.32362 | -55.14700 | 21624 ft | 363 kts | 298° |
| 2026-05-07 19:36 | -16.31576 | -55.16227 | 21313 ft | 361 kts | 298° |
| 2026-05-07 19:37 | -16.30392 | -55.18526 | 20839 ft | 359 kts | 298° |
| 2026-05-07 19:37 | -16.29214 | -55.20809 | 20388 ft | 357 kts | 298° |
| 2026-05-07 19:37 | -16.28044 | -55.23077 | 19937 ft | 354 kts | 298° |
| 2026-05-07 19:37 | -16.26883 | -55.25328 | 19479 ft | 352 kts | 298° |
| 2026-05-07 19:38 | -16.25729 | -55.27562 | 19047 ft | 349 kts | 298° |
| 2026-05-07 19:38 | -16.24582 | -55.29780 | 18613 ft | 347 kts | 298° |
| 2026-05-07 19:38 | -16.23443 | -55.31984 | 18178 ft | 345 kts | 298° |
| 2026-05-07 19:38 | -16.22315 | -55.34174 | 17704 ft | 342 kts | 298° |
| 2026-05-07 19:39 | -16.21197 | -55.36339 | 17261 ft | 337 kts | 298° |
| 2026-05-07 19:39 | -16.20091 | -55.38475 | 16855 ft | 333 kts | 298° |
| 2026-05-07 19:39 | -16.19000 | -55.40583 | 16450 ft | 329 kts | 298° |
| 2026-05-07 19:39 | -16.17924 | -55.42664 | 16052 ft | 325 kts | 298° |
| 2026-05-07 19:40 | -16.16862 | -55.44721 | 15664 ft | 321 kts | 298° |
| 2026-05-07 19:40 | -16.15815 | -55.46747 | 15277 ft | 317 kts | 298° |
| 2026-05-07 19:40 | -16.14776 | -55.48758 | 14879 ft | 313 kts | 298° |
| 2026-05-07 19:40 | -16.13754 | -55.50736 | 14498 ft | 309 kts | 298° |
| 2026-05-07 19:41 | -16.12740 | -55.52693 | 14128 ft | 306 kts | 298° |
| 2026-05-07 19:41 | -16.11735 | -55.54628 | 13756 ft | 302 kts | 298° |
| 2026-05-07 19:41 | -16.10742 | -55.56543 | 13347 ft | 299 kts | 298° |
| 2026-05-07 19:41 | -16.09763 | -55.58435 | 12953 ft | 295 kts | 298° |
| 2026-05-07 19:42 | -16.08801 | -55.60298 | 12585 ft | 290 kts | 299° |
| 2026-05-07 19:42 | -16.07854 | -55.62136 | 12215 ft | 286 kts | 299° |
| 2026-05-07 19:42 | -16.06919 | -55.63945 | 11851 ft | 282 kts | 299° |
| 2026-05-07 19:42 | -16.05994 | -55.65728 | 11480 ft | 279 kts | 300° |
| 2026-05-07 19:43 | -16.05077 | -55.67493 | 11119 ft | 276 kts | 300° |
| 2026-05-07 19:43 | -16.04167 | -55.69237 | 10733 ft | 273 kts | 300° |
| 2026-05-07 19:43 | -16.03266 | -55.70967 | 10361 ft | 271 kts | 301° |
| 2026-05-07 19:43 | -16.02374 | -55.72685 | 9992 ft | 269 kts | 301° |
| 2026-05-07 19:44 | -16.01488 | -55.74388 | 9596 ft | 267 kts | 301° |
| 2026-05-07 19:44 | -16.00609 | -55.76079 | 9191 ft | 265 kts | 301° |
| 2026-05-07 19:44 | -15.99740 | -55.77757 | 8832 ft | 262 kts | 301° |
| 2026-05-07 19:44 | -15.98879 | -55.79418 | 8517 ft | 261 kts | 302° |
| 2026-05-07 19:45 | -15.98020 | -55.81068 | 8138 ft | 259 kts | 302° |
| 2026-05-07 19:45 | -15.97167 | -55.82705 | 7747 ft | 257 kts | 301° |
| 2026-05-07 19:45 | -15.96320 | -55.84333 | 7341 ft | 255 kts | 302° |
| 2026-05-07 19:45 | -15.95480 | -55.85949 | 6941 ft | 253 kts | 302° |
| 2026-05-07 19:46 | -15.94650 | -55.87543 | 6545 ft | 250 kts | 302° |
| 2026-05-07 19:46 | -15.93836 | -55.89107 | 6158 ft | 247 kts | 301° |
| 2026-05-07 19:46 | -15.93011 | -55.90691 | 5743 ft | 246 kts | 301° |
| 2026-05-07 19:46 | -15.92200 | -55.92248 | 5328 ft | 244 kts | 301° |
| 2026-05-07 19:47 | -15.91391 | -55.93804 | 4926 ft | 244 kts | 301° |
| 2026-05-07 19:47 | -15.90595 | -55.95334 | 4661 ft | 235 kts | 302° |
| 2026-05-07 19:47 | -15.89859 | -55.96754 | 4611 ft | 218 kts | 302° |
| 2026-05-07 19:47 | -15.89158 | -55.98094 | 4545 ft | 204 kts | 304° |
| 2026-05-07 19:48 | -15.88280 | -55.99204 | 4455 ft | 190 kts | 323° |
| 2026-05-07 19:48 | -15.87197 | -55.99954 | 4389 ft | 186 kts | 332° |
| 2026-05-07 19:48 | -15.86066 | -56.00597 | 4310 ft | 185 kts | 333° |
| 2026-05-07 19:48 | -15.84923 | -56.01217 | 4226 ft | 185 kts | 334° |
| 2026-05-07 19:49 | -15.83779 | -56.01829 | 4155 ft | 185 kts | 334° |
| 2026-05-07 19:49 | -15.82631 | -56.02442 | 3982 ft | 185 kts | 334° |
| 2026-05-07 19:49 | -15.81500 | -56.03044 | 3766 ft | 185 kts | 335° |
| 2026-05-07 19:49 | -15.80360 | -56.03652 | 3539 ft | 184 kts | 335° |
| 2026-05-07 19:50 | -15.79222 | -56.04258 | 3311 ft | 184 kts | 335° |
| 2026-05-07 19:50 | -15.78085 | -56.04863 | 3076 ft | 183 kts | 335° |
| 2026-05-07 19:50 | -15.76954 | -56.05465 | 2845 ft | 181 kts | 334° |
| 2026-05-07 19:50 | -15.75854 | -56.06051 | 2639 ft | 175 kts | 334° |
| 2026-05-07 19:51 | -15.74772 | -56.06627 | 2396 ft | 171 kts | 335° |
| 2026-05-07 19:51 | -15.73739 | -56.07177 | 2181 ft | 167 kts | 334° |
| 2026-05-07 19:51 | -15.72718 | -56.07720 | 1971 ft | 162 kts | 334° |
| 2026-05-07 19:51 | -15.71747 | -56.08237 | 1768 ft | 151 kts | 334° |
| 2026-05-07 19:52 | -15.70855 | -56.08712 | 1611 ft | 138 kts | 334° |
| 2026-05-07 19:52 | -15.70004 | -56.09164 | 1421 ft | 137 kts | 334° |
| 2026-05-07 19:52 | -15.69175 | -56.09604 | 1248 ft | 131 kts | 334° |
| 2026-05-07 19:52 | -15.68373 | -56.10038 | 1106 ft | 130 kts | 334° |
| 2026-05-07 19:53 | -15.67564 | -56.10467 | 942 ft | 131 kts | 334° |
| 2026-05-07 19:53 | -15.66745 | -56.10899 | 748 ft | 134 kts | 332° |
| 2026-05-07 19:53 | -15.65920 | -56.11338 | 623 ft | 129 kts | 333° |
| 2026-05-07 19:53 | -15.65239 | -56.11698 | 598 ft | 73 kts | 333° |
| 2026-05-07 19:54 | -15.65084 | -56.11780 | 598 ft | 9 kts | 333° |
| 2026-05-07 19:54 | -15.65065 | -56.11827 | 598 ft | 7 kts | 249° |
| 2026-05-07 19:54 | -15.65084 | -56.11872 | 598 ft | 7 kts | 243° |
| 2026-05-07 19:54 | -15.65076 | -56.11912 | 597 ft | 7 kts | 311° |
| 2026-05-07 19:55 | -15.65026 | -56.11942 | 597 ft | 10 kts | 333° |
| 2026-05-07 19:55 | -15.64961 | -56.11977 | 596 ft | 12 kts | 333° |
| 2026-05-07 19:55 | -15.64897 | -56.12010 | 596 ft | 8 kts | 333° |
| 2026-05-07 19:55 | -15.64878 | -56.12025 | 596 ft | 2 kts | 292° |
| 2026-05-07 19:56 | -15.64881 | -56.12039 | 596 ft | 2 kts | 252° |
| 2026-05-07 19:56 | -15.64888 | -56.12054 | 596 ft | 2 kts | 243° |
| 2026-05-07 19:56 | -15.64890 | -56.12059 | 596 ft | 0 kts | 243° |